Time;durP1;ratioP1;P1;durP2;ratioP2;P2;SDS_P1;SDS_P2;PMS_P1;PMS_P2;Temp;Humidity;BMP_temperature;BMP_pressure;BME280_temperature;BME280_humidity;BME280_pressure;Samples;Min_cycle;Max_cycle;Signal;HPM_P1;HPM_P2
2021/12/09 00:00:17;;;;;;;3.93;1.60;;;6.00;99.90;;;;;;4954111;29;20200;-66
2021/12/09 00:02:45;;;;;;;3.00;1.40;;;6.00;99.90;;;;;;4953480;29;20181;-67
2021/12/09 00:05:16;;;;;;;2.03;1.40;;;6.00;99.90;;;;;;4951631;29;20339;-67
2021/12/09 00:07:49;;;;;;;3.40;1.50;;;6.00;99.90;;;;;;4959253;28;20187;-67
2021/12/09 00:10:17;;;;;;;2.77;1.53;;;5.90;99.90;;;;;;4945968;29;20221;-66
2021/12/09 00:12:43;;;;;;;2.67;1.60;;;5.90;99.90;;;;;;4947688;29;20185;-66
2021/12/09 00:15:09;;;;;;;2.87;1.37;;;5.80;99.90;;;;;;4967862;28;20260;-66
2021/12/09 00:17:37;;;;;;;2.40;1.50;;;5.80;99.90;;;;;;4950129;29;20208;-66
2021/12/09 00:20:04;;;;;;;2.33;1.37;;;5.80;99.90;;;;;;4951952;29;20219;-66
2021/12/09 00:22:30;;;;;;;2.77;1.27;;;5.80;99.90;;;;;;4950680;28;20246;-66
2021/12/09 00:24:58;;;;;;;3.57;1.20;;;5.70;99.90;;;;;;4947195;29;20205;-67
2021/12/09 00:27:26;;;;;;;3.27;1.50;;;5.70;99.90;;;;;;4957038;28;20173;-67
2021/12/09 00:29:52;;;;;;;2.90;1.50;;;5.70;99.90;;;;;;4947352;29;20188;-66
2021/12/09 00:32:18;;;;;;;3.40;1.30;;;5.60;99.90;;;;;;4946694;29;20173;-66
2021/12/09 00:34:47;;;;;;;2.03;1.20;;;5.60;99.90;;;;;;4951860;28;20181;-66
2021/12/09 00:37:28;;;;;;;3.00;1.50;;;5.50;99.90;;;;;;4950163;28;20201;-66
2021/12/09 00:39:54;;;;;;;3.97;1.60;;;5.50;99.90;;;;;;4948798;29;20232;-67
2021/12/09 00:42:25;;;;;;;2.53;1.30;;;5.50;99.90;;;;;;4950024;28;20211;-66
2021/12/09 00:44:56;;;;;;;3.33;1.43;;;5.40;99.90;;;;;;4964078;28;20235;-67
2021/12/09 00:47:23;;;;;;;2.10;1.30;;;5.40;99.90;;;;;;4968407;28;20380;-66
2021/12/09 00:49:49;;;;;;;3.83;1.63;;;5.40;99.90;;;;;;4963900;28;20209;-66
2021/12/09 00:52:16;;;;;;;2.57;1.40;;;5.40;99.90;;;;;;4968358;28;20196;-66
2021/12/09 00:54:46;;;;;;;2.40;1.40;;;5.40;99.90;;;;;;4950157;28;20320;-65
2021/12/09 00:57:12;;;;;;;4.10;2.17;;;5.40;99.90;;;;;;4966741;28;20216;-67
2021/12/09 00:59:38;;;;;;;3.43;1.80;;;5.40;99.90;;;;;;4951453;28;20294;-66
2021/12/09 01:02:04;;;;;;;3.90;1.70;;;5.30;99.90;;;;;;4944424;28;20497;-65
2021/12/09 01:04:31;;;;;;;3.07;1.70;;;5.30;99.90;;;;;;4952029;28;20276;-67
2021/12/09 01:06:57;;;;;;;3.20;1.93;;;5.30;99.90;;;;;;4950869;28;20207;-66
2021/12/09 01:09:25;;;;;;;4.57;1.83;;;5.30;99.90;;;;;;4947401;29;20196;-66
2021/12/09 01:11:55;;;;;;;3.93;2.00;;;5.30;99.90;;;;;;4952279;28;20195;-66
2021/12/09 01:14:21;;;;;;;3.70;1.83;;;5.20;99.90;;;;;;4954331;28;20197;-65
2021/12/09 01:16:47;;;;;;;3.93;1.97;;;5.20;99.90;;;;;;4951824;29;20196;-66
2021/12/09 01:19:17;;;;;;;5.03;2.00;;;5.20;99.90;;;;;;4951261;29;20185;-66
2021/12/09 01:21:46;;;;;;;2.60;1.60;;;5.20;99.90;;;;;;4946893;29;20205;-66
2021/12/09 01:24:11;;;;;;;3.90;1.90;;;5.20;99.90;;;;;;4945655;29;20208;-67
2021/12/09 01:26:39;;;;;;;3.33;1.73;;;5.30;99.90;;;;;;4949155;29;20269;-67
2021/12/09 01:29:17;;;;;;;3.30;1.77;;;5.30;99.90;;;;;;4952834;28;20195;-66
2021/12/09 01:31:51;;;;;;;3.17;1.70;;;5.30;99.90;;;;;;4968766;28;20296;-65
2021/12/09 01:34:19;;;;;;;2.63;1.60;;;5.30;99.90;;;;;;4949336;29;20322;-65
2021/12/09 01:36:49;;;;;;;3.70;1.80;;;5.30;99.90;;;;;;4951051;29;20220;-66
2021/12/09 01:39:16;;;;;;;7.30;1.80;;;5.40;99.90;;;;;;4940773;29;20212;-67
2021/12/09 01:41:41;;;;;;;4.67;1.90;;;5.40;99.90;;;;;;4949434;29;20243;-68
2021/12/09 01:44:09;;;;;;;2.20;1.50;;;5.40;99.90;;;;;;4972061;28;20209;-66
2021/12/09 01:46:35;;;;;;;5.47;1.90;;;5.40;99.90;;;;;;4950499;29;20176;-67
2021/12/09 01:49:04;;;;;;;2.63;1.70;;;5.50;99.90;;;;;;4946629;29;20268;-66
2021/12/09 01:51:30;;;;;;;2.70;1.67;;;5.50;99.90;;;;;;4949480;29;20219;-67
2021/12/09 01:53:56;;;;;;;2.93;1.67;;;5.50;99.90;;;;;;4950990;28;20180;-67
2021/12/09 01:56:25;;;;;;;2.80;1.50;;;5.50;99.90;;;;;;4948497;28;20254;-66
2021/12/09 01:58:58;;;;;;;3.40;1.80;;;5.50;99.90;;;;;;4946962;28;20200;-66
2021/12/09 02:01:24;;;;;;;3.17;1.60;;;5.50;99.90;;;;;;4939530;29;20197;-67
2021/12/09 02:03:53;;;;;;;3.00;1.60;;;5.50;99.90;;;;;;4967398;28;20199;-66
2021/12/09 02:06:19;;;;;;;3.23;1.60;;;5.50;99.90;;;;;;4951843;28;20208;-67
2021/12/09 02:08:51;;;;;;;3.20;1.83;;;5.50;99.90;;;;;;4943084;29;20507;-65
2021/12/09 02:11:17;;;;;;;4.83;1.80;;;5.50;99.90;;;;;;4948786;28;20196;-66
2021/12/09 02:13:46;;;;;;;2.57;1.80;;;5.50;99.90;;;;;;4939458;29;20203;-67
2021/12/09 02:16:13;;;;;;;2.60;1.50;;;5.50;99.90;;;;;;4959240;28;20185;-64
2021/12/09 02:18:39;;;;;;;3.83;1.90;;;5.50;99.90;;;;;;4962516;28;20196;-65
2021/12/09 02:21:08;;;;;;;3.83;1.60;;;5.50;99.90;;;;;;4950858;29;20201;-65
2021/12/09 02:23:34;;;;;;;3.30;1.80;;;5.60;99.90;;;;;;4949714;28;20181;-65
2021/12/09 02:26:08;;;;;;;3.03;1.60;;;5.60;99.90;;;;;;4948656;28;20200;-65
2021/12/09 02:28:34;;;;;;;2.67;1.50;;;5.60;99.90;;;;;;4944352;29;20267;-65
2021/12/09 02:31:04;;;;;;;4.20;1.80;;;5.60;99.90;;;;;;4948586;29;20280;-65
2021/12/09 02:33:30;;;;;;;3.93;1.90;;;5.60;99.90;;;;;;4950759;28;20223;-65
2021/12/09 02:35:58;;;;;;;4.47;1.63;;;5.60;99.90;;;;;;4950499;29;20244;-65
2021/12/09 02:38:24;;;;;;;4.10;1.80;;;5.60;99.90;;;;;;4947051;29;20189;-65
2021/12/09 02:40:53;;;;;;;2.50;1.50;;;5.60;99.90;;;;;;4947922;29;20212;-65
2021/12/09 02:43:32;;;;;;;2.90;1.50;;;5.60;99.90;;;;;;4945732;29;20209;-65
2021/12/09 02:46:02;;;;;;;3.33;1.50;;;5.60;99.90;;;;;;4948760;29;20227;-65
2021/12/09 02:48:28;;;;;;;4.43;1.30;;;5.60;99.90;;;;;;4946877;29;20177;-64
2021/12/09 02:50:59;;;;;;;2.83;1.30;;;5.60;99.90;;;;;;4950983;28;20208;-68
2021/12/09 02:53:25;;;;;;;2.00;1.37;;;5.60;99.90;;;;;;4949920;29;20212;-69
2021/12/09 02:55:53;;;;;;;2.10;1.30;;;5.60;99.90;;;;;;4951387;28;20195;-69
2021/12/09 02:58:21;;;;;;;2.53;1.40;;;5.60;99.90;;;;;;4948428;29;20234;-69
2021/12/09 03:00:58;;;;;;;2.30;1.50;;;5.60;99.90;;;;;;4945144;29;20208;-69
2021/12/09 03:03:24;;;;;;;2.03;1.30;;;5.60;99.90;;;;;;4949203;28;20191;-68
2021/12/09 03:06:02;;;;;;;2.63;1.50;;;5.60;99.90;;;;;;4946574;29;20268;-69
2021/12/09 03:08:34;;;;;;;4.30;1.70;;;5.50;99.90;;;;;;4955065;29;20184;-69
2021/12/09 03:11:22;;;;;;;4.00;1.53;;;5.50;99.90;;;;;;4957108;29;20199;-69
2021/12/09 03:13:53;;;;;;;1.77;1.27;;;5.50;99.90;;;;;;4956975;29;20204;-69
2021/12/09 03:16:25;;;;;;;2.07;1.30;;;5.50;99.90;;;;;;4951831;29;20181;-68
2021/12/09 03:18:55;;;;;;;4.17;1.40;;;5.40;99.90;;;;;;4948370;28;20173;-69
2021/12/09 03:21:38;;;;;;;3.23;1.43;;;5.40;99.90;;;;;;4957356;28;20228;-68
2021/12/09 03:24:07;;;;;;;3.50;1.77;;;5.40;99.90;;;;;;4965226;28;20254;-69
2021/12/09 03:26:37;;;;;;;4.80;1.80;;;5.40;99.90;;;;;;4950128;29;20177;-69
2021/12/09 03:29:07;;;;;;;3.20;1.40;;;5.30;99.90;;;;;;4955986;29;20259;-70
2021/12/09 03:31:36;;;;;;;2.23;1.30;;;5.20;99.90;;;;;;4953747;28;20188;-69
2021/12/09 03:34:05;;;;;;;2.77;1.43;;;5.20;99.90;;;;;;4953260;29;20219;-71
2021/12/09 03:36:35;;;;;;;3.00;1.40;;;5.20;99.90;;;;;;4957459;29;20211;-67
2021/12/09 03:39:07;;;;;;;2.80;1.37;;;5.10;99.90;;;;;;4952798;29;20177;-67
2021/12/09 03:41:34;;;;;;;1.90;1.30;;;5.10;99.90;;;;;;4956348;29;20218;-65
2021/12/09 03:44:02;;;;;;;2.20;1.30;;;5.10;99.90;;;;;;4954514;29;20198;-67
2021/12/09 03:46:30;;;;;;;3.27;1.50;;;5.10;99.90;;;;;;4956267;29;20189;-67
2021/12/09 03:48:58;;;;;;;2.37;1.30;;;5.00;99.90;;;;;;4952513;28;20311;-67
2021/12/09 03:51:25;;;;;;;4.33;1.63;;;5.00;99.90;;;;;;4963861;28;20185;-68
2021/12/09 03:53:53;;;;;;;2.40;1.40;;;5.00;99.90;;;;;;4955212;29;20177;-68
2021/12/09 03:56:19;;;;;;;2.00;1.20;;;4.90;99.90;;;;;;4956344;28;20446;-66
2021/12/09 03:58:44;;;;;;;3.63;1.53;;;4.90;99.90;;;;;;4955196;28;20181;-67
2021/12/09 04:01:10;;;;;;;2.80;1.60;;;4.90;99.90;;;;;;4947658;29;20216;-67
2021/12/09 04:03:36;;;;;;;2.37;1.33;;;4.80;99.90;;;;;;4947164;28;20275;-69
2021/12/09 04:06:01;;;;;;;2.53;1.30;;;4.80;99.90;;;;;;4955402;28;20181;-68
2021/12/09 04:08:27;;;;;;;2.63;1.33;;;4.70;99.90;;;;;;4953564;29;22720;-69
2021/12/09 04:10:53;;;;;;;3.60;1.47;;;4.70;99.90;;;;;;4952368;28;20192;-68
2021/12/09 04:13:21;;;;;;;2.50;1.23;;;4.60;99.90;;;;;;4970439;28;20186;-69
2021/12/09 04:15:47;;;;;;;3.90;1.70;;;4.60;99.90;;;;;;4945448;28;20531;-65
2021/12/09 04:18:15;;;;;;;3.23;1.77;;;4.50;99.90;;;;;;4952244;29;20185;-69
2021/12/09 04:20:43;;;;;;;2.67;1.67;;;4.50;99.90;;;;;;4950803;28;20292;-68
2021/12/09 04:23:09;;;;;;;3.80;1.80;;;4.50;99.90;;;;;;4952135;28;20548;-68
2021/12/09 04:25:35;;;;;;;2.43;1.50;;;4.40;99.90;;;;;;4952538;29;20252;-69
2021/12/09 04:28:04;;;;;;;4.27;1.77;;;4.40;99.90;;;;;;4958682;28;20215;-69
2021/12/09 04:30:30;;;;;;;5.53;1.90;;;4.40;99.90;;;;;;4963638;28;20181;-68
2021/12/09 04:32:56;;;;;;;4.80;1.90;;;4.30;99.90;;;;;;4944575;29;20205;-69
2021/12/09 04:35:25;;;;;;;4.27;1.70;;;4.40;99.90;;;;;;4943393;29;20205;-69
2021/12/09 04:37:53;;;;;;;2.57;1.80;;;4.30;99.90;;;;;;4952219;28;20207;-68
2021/12/09 04:40:19;;;;;;;4.70;1.80;;;4.30;99.90;;;;;;4969300;28;20204;-69
2021/12/09 04:42:47;;;;;;;3.30;2.20;;;4.40;99.90;;;;;;4950229;29;20193;-69
2021/12/09 04:45:12;;;;;;;2.93;1.63;;;4.40;99.90;;;;;;4951898;28;20249;-68
2021/12/09 04:47:40;;;;;;;4.57;2.00;;;4.30;99.90;;;;;;5032372;28;20291;-69
2021/12/09 04:50:07;;;;;;;9.90;6.00;;;4.40;99.90;;;;;;4951426;28;20213;-68
2021/12/09 04:52:33;;;;;;;5.70;3.50;;;4.30;99.90;;;;;;4946860;29;20235;-68
2021/12/09 04:55:01;;;;;;;4.70;2.67;;;4.30;99.90;;;;;;4947199;29;20232;-68
2021/12/09 04:57:26;;;;;;;4.30;2.50;;;4.40;99.90;;;;;;4948973;29;20314;-69
2021/12/09 04:59:52;;;;;;;3.47;2.00;;;4.40;99.90;;;;;;4949846;29;20185;-67
2021/12/09 05:02:40;;;;;;;5.07;2.93;;;4.30;99.90;;;;;;4948307;28;20276;-69
2021/12/09 05:05:10;;;;;;;4.73;2.70;;;4.30;99.90;;;;;;4964048;28;20187;-69
2021/12/09 05:07:36;;;;;;;3.57;1.83;;;4.30;99.90;;;;;;4939862;29;20201;-69
2021/12/09 05:10:05;;;;;;;2.60;1.77;;;4.30;99.90;;;;;;4955248;28;20263;-69
2021/12/09 05:12:31;;;;;;;2.97;1.90;;;4.30;99.90;;;;;;4947969;29;20187;-68
2021/12/09 05:14:57;;;;;;;3.17;1.70;;;4.30;99.90;;;;;;4952942;28;20189;-68
2021/12/09 05:17:27;;;;;;;4.97;1.90;;;4.30;99.90;;;;;;4952458;28;20705;-68
2021/12/09 05:19:55;;;;;;;3.57;2.00;;;4.30;99.90;;;;;;4992786;28;20201;-66
2021/12/09 05:22:21;;;;;;;3.43;1.40;;;4.40;99.90;;;;;;4940552;28;20181;-67
2021/12/09 05:24:49;;;;;;;3.77;1.80;;;4.40;99.90;;;;;;4951839;29;20246;-67
2021/12/09 05:27:18;;;;;;;3.67;1.90;;;4.50;99.90;;;;;;4950726;29;20196;-66
2021/12/09 05:29:46;;;;;;;3.10;1.87;;;4.50;99.90;;;;;;4950971;29;20271;-68
2021/12/09 05:32:13;;;;;;;4.40;1.77;;;4.50;99.90;;;;;;4957144;28;20232;-67
2021/12/09 05:34:44;;;;;;;3.33;1.63;;;4.50;99.90;;;;;;4951768;29;20237;-67
2021/12/09 05:37:18;;;;;;;2.70;1.60;;;4.50;99.90;;;;;;4946036;29;20290;-67
2021/12/09 05:39:45;;;;;;;2.97;1.90;;;4.60;99.90;;;;;;4948021;28;20287;-67
2021/12/09 05:42:12;;;;;;;3.53;1.80;;;4.50;99.90;;;;;;4952012;29;20276;-67
2021/12/09 05:44:38;;;;;;;4.43;1.73;;;4.50;99.90;;;;;;4947913;29;20220;-67
2021/12/09 05:47:05;;;;;;;3.77;1.87;;;4.60;99.90;;;;;;4941554;29;20181;-67
2021/12/09 05:49:38;;;;;;;3.67;1.80;;;4.60;99.90;;;;;;4952630;29;20295;-67
2021/12/09 05:52:07;;;;;;;3.53;1.97;;;4.60;99.90;;;;;;4948851;29;20219;-68
2021/12/09 05:54:38;;;;;;;2.87;2.00;;;4.60;99.90;;;;;;4952493;28;20189;-69
2021/12/09 05:57:06;;;;;;;2.93;1.90;;;4.60;99.90;;;;;;4959008;28;20189;-69
2021/12/09 05:59:32;;;;;;;3.33;1.70;;;4.60;99.90;;;;;;4948008;29;20181;-70
2021/12/09 06:02:00;;;;;;;4.10;1.87;;;4.60;99.90;;;;;;4951341;29;20740;-68
2021/12/09 06:04:26;;;;;;;4.23;1.50;;;4.60;99.90;;;;;;4956665;28;20200;-71
2021/12/09 06:06:53;;;;;;;5.90;1.50;;;4.60;99.90;;;;;;4948900;29;20243;-71
2021/12/09 06:09:19;;;;;;;3.93;1.73;;;4.60;99.90;;;;;;4951028;29;20189;-68
2021/12/09 06:11:46;;;;;;;4.40;2.23;;;4.50;99.90;;;;;;4954580;28;20259;-69
2021/12/09 06:14:15;;;;;;;3.00;1.80;;;4.50;99.90;;;;;;4948746;29;20333;-69
2021/12/09 06:16:41;;;;;;;4.03;2.07;;;4.50;99.90;;;;;;4949978;29;20265;-67
2021/12/09 06:19:07;;;;;;;3.67;1.90;;;4.50;99.90;;;;;;4946557;29;20217;-69
2021/12/09 06:21:35;;;;;;;4.40;1.87;;;4.50;99.90;;;;;;4943603;29;20212;-69
2021/12/09 06:24:04;;;;;;;3.10;1.83;;;4.50;99.90;;;;;;4951602;29;20188;-69
2021/12/09 06:26:33;;;;;;;3.73;1.90;;;4.40;99.90;;;;;;4943959;29;20205;-69
2021/12/09 06:29:02;;;;;;;2.70;1.60;;;4.40;99.90;;;;;;4954241;28;20197;-69
2021/12/09 06:31:29;;;;;;;3.53;1.80;;;4.40;99.90;;;;;;4950634;29;20273;-69
2021/12/09 06:33:57;;;;;;;3.07;1.70;;;4.50;99.90;;;;;;4950438;28;20183;-68
2021/12/09 06:36:25;;;;;;;3.87;1.80;;;4.50;99.90;;;;;;4951645;28;20419;-68
2021/12/09 06:38:52;;;;;;;3.27;1.70;;;4.50;99.90;;;;;;4949476;28;20215;-68
2021/12/09 06:41:17;;;;;;;3.27;1.90;;;4.40;99.90;;;;;;4954030;28;20354;-71
2021/12/09 06:43:46;;;;;;;5.80;2.17;;;4.40;99.90;;;;;;4953914;28;20200;-69
2021/12/09 06:46:12;;;;;;;4.07;1.93;;;4.40;99.90;;;;;;4949154;29;20227;-70
2021/12/09 06:48:39;;;;;;;2.73;1.90;;;4.40;99.90;;;;;;4950849;29;20234;-68
2021/12/09 06:51:06;;;;;;;4.43;1.80;;;4.40;99.90;;;;;;4950725;29;20197;-68
2021/12/09 06:53:37;;;;;;;3.10;2.10;;;4.30;99.90;;;;;;4951185;28;20204;-68
2021/12/09 06:56:04;;;;;;;4.87;1.80;;;4.30;99.90;;;;;;4950987;28;20193;-69
2021/12/09 06:58:32;;;;;;;3.43;1.93;;;4.30;99.90;;;;;;4946814;28;20195;-69
2021/12/09 07:01:03;;;;;;;4.63;2.00;;;4.30;99.90;;;;;;4948549;29;20208;-70
2021/12/09 07:03:29;;;;;;;5.10;1.83;;;4.20;99.90;;;;;;4950941;29;20288;-70
2021/12/09 07:05:55;;;;;;;2.67;1.93;;;4.20;99.90;;;;;;4947961;29;20181;-70
2021/12/09 07:08:24;;;;;;;3.20;1.77;;;4.20;99.90;;;;;;4943494;29;20201;-70
2021/12/09 07:10:52;;;;;;;3.37;2.30;;;4.20;99.90;;;;;;4950473;29;20177;-69
2021/12/09 07:13:17;;;;;;;5.73;2.30;;;4.20;99.90;;;;;;4959904;28;20276;-70
2021/12/09 07:15:43;;;;;;;2.97;1.90;;;4.20;99.90;;;;;;4947246;28;20223;-70
2021/12/09 07:18:11;;;;;;;4.87;2.07;;;4.20;99.90;;;;;;4942776;29;20268;-68
2021/12/09 07:20:39;;;;;;;2.63;2.00;;;4.20;99.90;;;;;;4947283;29;20237;-69
2021/12/09 07:23:07;;;;;;;3.60;2.33;;;4.10;99.90;;;;;;4954681;28;20197;-67
2021/12/09 07:25:33;;;;;;;3.97;2.37;;;4.10;99.90;;;;;;4947783;29;20252;-69
2021/12/09 07:27:58;;;;;;;3.73;2.37;;;4.10;99.90;;;;;;4951205;28;20326;-67
2021/12/09 07:30:26;;;;;;;4.90;2.70;;;4.10;99.90;;;;;;4958837;28;20192;-69
2021/12/09 07:32:54;;;;;;;5.47;2.83;;;4.10;99.90;;;;;;4963717;28;20410;-69
2021/12/09 07:35:20;;;;;;;3.37;2.60;;;4.00;99.90;;;;;;4945194;29;20285;-70
2021/12/09 07:37:46;;;;;;;6.43;2.60;;;4.00;99.90;;;;;;4978561;28;20451;-69
2021/12/09 07:40:20;;;;;;;3.97;2.50;;;4.00;99.90;;;;;;4946601;29;20217;-69
2021/12/09 07:42:46;;;;;;;2.73;2.13;;;4.00;99.90;;;;;;4947366;29;20169;-69
2021/12/09 07:45:15;;;;;;;5.97;2.70;;;4.00;99.90;;;;;;4950426;29;20266;-68
2021/12/09 07:47:47;;;;;;;4.37;2.50;;;4.00;99.90;;;;;;4961388;28;20173;-67
2021/12/09 07:50:18;;;;;;;4.60;2.53;;;4.00;99.90;;;;;;4953781;28;20173;-69
2021/12/09 07:52:49;;;;;;;4.97;2.40;;;3.90;99.90;;;;;;4944760;29;20232;-69
2021/12/09 07:55:19;;;;;;;5.27;2.40;;;3.90;99.90;;;;;;4943107;29;20228;-69
2021/12/09 07:57:44;;;;;;;3.50;2.70;;;3.90;99.90;;;;;;4942545;29;20290;-69
2021/12/09 08:00:32;;;;;;;4.37;2.70;;;3.90;99.90;;;;;;4948008;29;20244;-69
2021/12/09 08:03:00;;;;;;;3.73;2.53;;;3.90;99.90;;;;;;4947522;29;20185;-69
2021/12/09 08:05:27;;;;;;;5.73;2.80;;;3.90;99.90;;;;;;4952640;29;20177;-70
2021/12/09 08:07:53;;;;;;;5.90;2.70;;;4.00;99.90;;;;;;4952233;29;20273;-69
2021/12/09 08:10:22;;;;;;;4.30;2.73;;;3.90;99.90;;;;;;4942343;29;20280;-70
2021/12/09 08:12:50;;;;;;;4.33;2.80;;;3.90;99.90;;;;;;4952290;28;20258;-69
2021/12/09 08:15:17;;;;;;;6.97;3.37;;;4.00;99.90;;;;;;4976343;28;20380;-69
2021/12/09 08:20:11;;;;;;;5.13;3.13;;;4.00;99.90;;;;;;4954705;29;20570;-69
2021/12/09 08:22:39;;;;;;;4.67;3.50;;;4.00;99.90;;;;;;4949975;28;20225;-68
2021/12/09 08:25:09;;;;;;;8.70;3.50;;;4.00;99.90;;;;;;4939626;29;20185;-67
2021/12/09 08:27:36;;;;;;;5.53;3.17;;;4.00;99.90;;;;;;4944099;29;20185;-69
2021/12/09 08:30:06;;;;;;;5.20;3.20;;;4.10;99.90;;;;;;4951850;29;20201;-69
2021/12/09 08:32:33;;;;;;;5.33;3.00;;;4.10;99.90;;;;;;4952708;29;20207;-69
2021/12/09 08:35:02;;;;;;;4.83;3.13;;;4.10;99.90;;;;;;4948557;29;20215;-69
2021/12/09 08:37:29;;;;;;;5.03;3.23;;;4.20;99.90;;;;;;4949705;28;20204;-68
2021/12/09 08:39:57;;;;;;;4.90;3.27;;;4.30;99.90;;;;;;4952682;29;20188;-67
2021/12/09 08:42:24;;;;;;;6.87;3.27;;;4.30;99.90;;;;;;4950572;29;20188;-69
2021/12/09 08:44:54;;;;;;;5.50;2.90;;;4.40;99.90;;;;;;4946914;28;20216;-69
2021/12/09 08:47:19;;;;;;;4.37;2.83;;;4.40;99.90;;;;;;4953099;29;20176;-69
2021/12/09 08:49:50;;;;;;;4.33;3.20;;;4.40;99.90;;;;;;4952361;28;20334;-69
2021/12/09 08:52:15;;;;;;;7.50;2.97;;;4.50;99.90;;;;;;4951954;28;20238;-69
2021/12/09 08:54:41;;;;;;;8.23;3.17;;;4.50;99.90;;;;;;4943999;29;20189;-69
2021/12/09 08:57:07;;;;;;;5.17;2.90;;;4.50;99.90;;;;;;4946969;29;20230;-70
2021/12/09 08:59:33;;;;;;;4.07;2.93;;;4.60;99.90;;;;;;4946829;28;20187;-68
2021/12/09 09:02:01;;;;;;;3.63;2.43;;;4.60;99.90;;;;;;4958812;28;20201;-68
2021/12/09 09:04:27;;;;;;;5.70;3.13;;;4.80;99.90;;;;;;4944145;28;20181;-69
2021/12/09 09:06:57;;;;;;;4.50;3.00;;;5.00;99.90;;;;;;4950780;29;20184;-67
2021/12/09 09:09:26;;;;;;;5.13;2.90;;;5.20;99.90;;;;;;4956302;28;20173;-69
2021/12/09 09:11:53;;;;;;;4.03;2.83;;;5.30;99.90;;;;;;4943995;29;20185;-69
2021/12/09 09:14:19;;;;;;;6.37;2.67;;;5.60;99.90;;;;;;4950374;29;20185;-69
2021/12/09 09:16:47;;;;;;;4.23;2.70;;;5.80;99.90;;;;;;4952256;29;20210;-69
2021/12/09 09:19:13;;;;;;;4.33;2.90;;;5.90;99.90;;;;;;4968591;28;20177;-68
2021/12/09 09:21:42;;;;;;;4.43;2.60;;;6.10;99.90;;;;;;4955621;28;20209;-69
2021/12/09 09:24:10;;;;;;;4.83;2.60;;;6.30;99.90;;;;;;4945156;29;20177;-69
2021/12/09 09:26:37;;;;;;;6.43;3.13;;;6.50;99.90;;;;;;4948459;29;20191;-70
2021/12/09 09:29:05;;;;;;;3.80;2.40;;;6.70;99.90;;;;;;4951485;28;20212;-69
2021/12/09 09:31:34;;;;;;;3.90;2.90;;;6.80;99.90;;;;;;4952185;28;20252;-69
2021/12/09 09:34:03;;;;;;;3.93;2.47;;;6.90;99.90;;;;;;4964413;28;20261;-69
2021/12/09 09:36:33;;;;;;;3.70;2.80;;;7.00;99.90;;;;;;4955688;28;20202;-70
2021/12/09 09:39:19;;;;;;;5.73;2.60;;;7.10;99.90;;;;;;4952392;29;20273;-69
2021/12/09 09:41:55;;;;;;;5.93;2.80;;;7.20;99.90;;;;;;4975164;28;20232;-69
2021/12/09 09:44:27;;;;;;;4.33;2.50;;;7.30;99.90;;;;;;4947416;28;20196;-69
2021/12/09 09:46:58;;;;;;;4.87;2.33;;;7.40;99.90;;;;;;4952326;29;20581;-70
2021/12/09 09:49:26;;;;;;;4.13;2.40;;;7.50;99.90;;;;;;4945354;28;20310;-69
2021/12/09 09:51:55;;;;;;;3.10;2.20;;;7.60;99.90;;;;;;4949948;29;20209;-69
2021/12/09 09:54:24;;;;;;;3.33;2.40;;;7.70;99.90;;;;;;4957350;28;20196;-70
2021/12/09 09:56:53;;;;;;;3.70;2.33;;;7.80;99.90;;;;;;4952197;28;20264;-70
2021/12/09 09:59:21;;;;;;;4.70;2.90;;;7.90;99.90;;;;;;4941285;29;20177;-69
2021/12/09 10:01:52;;;;;;;4.03;2.70;;;7.90;99.90;;;;;;4949741;29;20261;-70
2021/12/09 10:07:06;;;;;;;3.93;2.67;;;7.90;99.90;;;;;;4947747;29;20172;-70
2021/12/09 10:09:37;;;;;;;5.10;2.60;;;7.90;99.90;;;;;;4956698;28;20196;-70
2021/12/09 10:12:06;;;;;;;5.20;2.80;;;7.90;99.90;;;;;;4949294;28;20215;-70
2021/12/09 10:14:37;;;;;;;4.70;2.53;;;8.00;99.90;;;;;;4949581;29;20196;-68
2021/12/09 10:17:03;;;;;;;4.10;2.20;;;8.00;99.90;;;;;;4950143;29;20479;-68
2021/12/09 10:19:30;;;;;;;7.60;2.57;;;8.00;99.90;;;;;;4949762;28;20438;-70
2021/12/09 10:22:16;;;;;;;5.07;2.40;;;8.10;99.90;;;;;;4948162;29;20287;-70
2021/12/09 10:24:46;;;;;;;5.40;2.63;;;8.10;99.90;;;;;;4951214;29;20201;-69
2021/12/09 10:27:24;;;;;;;5.33;2.70;;;8.10;99.90;;;;;;4941928;28;20224;-68
2021/12/09 10:29:56;;;;;;;6.37;2.80;;;8.00;99.90;;;;;;4964036;28;20169;-70
2021/12/09 10:32:30;;;;;;;6.03;2.40;;;8.00;99.90;;;;;;4945904;29;20189;-69
2021/12/09 10:35:06;;;;;;;5.00;2.40;;;7.90;99.90;;;;;;4949869;29;20254;-67
2021/12/09 10:37:36;;;;;;;3.90;2.37;;;7.90;99.90;;;;;;4947516;29;20185;-69
2021/12/09 10:40:13;;;;;;;4.37;2.33;;;7.80;99.90;;;;;;4940247;29;20200;-67
2021/12/09 10:42:40;;;;;;;10.40;3.40;;;7.80;99.90;;;;;;4951026;28;20180;-69
2021/12/09 10:45:15;;;;;;;6.27;2.30;;;7.80;99.90;;;;;;4950814;28;20353;-68
2021/12/09 10:47:50;;;;;;;3.13;1.80;;;7.80;99.90;;;;;;4948250;28;20196;-70
2021/12/09 10:52:56;;;;;;;3.47;1.70;;;7.90;99.90;;;;;;4947663;29;20197;-70
2021/12/09 10:55:26;;;;;;;5.23;2.40;;;7.90;99.90;;;;;;4937365;29;20189;-68
2021/12/09 10:57:56;;;;;;;3.27;1.70;;;8.00;99.90;;;;;;4945494;29;20264;-70
2021/12/09 11:00:26;;;;;;;5.33;2.17;;;8.10;99.90;;;;;;4948791;29;20204;-65
2021/12/09 11:03:07;;;;;;;4.80;2.20;;;8.10;99.90;;;;;;4947976;29;20196;-65
2021/12/09 11:05:37;;;;;;;3.60;1.93;;;8.00;99.90;;;;;;4947858;29;20177;-65
2021/12/09 11:08:26;;;;;;;4.40;2.00;;;8.00;99.90;;;;;;4939902;29;20177;-65
2021/12/09 11:11:10;;;;;;;5.23;2.33;;;7.90;99.90;;;;;;4947331;28;20289;-65
2021/12/09 11:13:47;;;;;;;4.90;2.33;;;7.80;99.90;;;;;;4951653;28;20184;-65
2021/12/09 11:16:23;;;;;;;4.10;2.10;;;7.70;99.90;;;;;;4962055;28;20260;-65
2021/12/09 11:18:57;;;;;;;3.30;1.77;;;7.60;99.90;;;;;;4966520;28;20180;-65
2021/12/09 11:21:34;;;;;;;3.10;1.70;;;7.60;99.90;;;;;;4932795;29;20224;-65
2021/12/09 11:24:11;;;;;;;2.47;1.70;;;7.50;99.90;;;;;;4945528;29;20233;-66
2021/12/09 11:26:47;;;;;;;3.60;2.00;;;7.50;99.90;;;;;;4949877;28;20191;-65
2021/12/09 11:29:18;;;;;;;3.40;2.00;;;7.50;99.90;;;;;;4942738;29;20188;-65
2021/12/09 11:31:46;;;;;;;4.27;1.90;;;7.50;99.90;;;;;;4956523;28;20205;-64
2021/12/09 11:34:18;;;;;;;4.70;2.10;;;7.50;99.90;;;;;;4951055;28;20196;-65
2021/12/09 11:36:58;;;;;;;4.70;2.47;;;7.50;99.90;;;;;;4950556;29;20176;-65
2021/12/09 11:39:34;;;;;;;3.23;1.90;;;7.40;99.90;;;;;;4976502;28;20192;-65
2021/12/09 11:42:16;;;;;;;4.03;2.00;;;7.40;99.90;;;;;;4949087;29;20204;-65
2021/12/09 11:44:44;;;;;;;2.90;1.80;;;7.50;99.90;;;;;;4960835;28;20472;-65
2021/12/09 11:47:12;;;;;;;2.53;1.73;;;7.50;99.90;;;;;;4947780;28;20217;-67
2021/12/09 11:49:38;;;;;;;4.53;2.20;;;7.50;99.90;;;;;;4953368;29;20242;-66
2021/12/09 11:52:04;;;;;;;3.60;1.83;;;7.50;99.90;;;;;;4951886;29;20208;-66
2021/12/09 11:54:32;;;;;;;3.20;1.80;;;7.50;99.90;;;;;;4949201;29;20235;-67
2021/12/09 11:57:13;;;;;;;2.70;1.73;;;7.50;99.90;;;;;;4978607;28;20304;-66
2021/12/09 12:06:40;;;;;;;2.50;1.67;;;7.50;99.90;;;;;;4952556;29;20228;-67
2021/12/09 12:11:17;;;;;;;3.23;1.80;;;7.50;99.90;;;;;;4941816;29;20299;-67
2021/12/09 12:14:04;;;;;;;1.97;1.33;;;7.50;99.90;;;;;;4972442;28;20446;-66
2021/12/09 12:19:17;;;;;;;3.17;1.53;;;7.50;99.90;;;;;;4947289;29;20189;-66
2021/12/09 12:21:58;;;;;;;2.60;1.60;;;7.50;99.90;;;;;;4955426;28;20212;-66
2021/12/09 12:27:28;;;;;;;5.17;1.83;;;7.50;99.90;;;;;;4954223;28;20188;-67
2021/12/09 12:33:19;;;;;;;5.00;1.73;;;7.50;99.90;;;;;;4948074;28;20203;-67
2021/12/09 12:36:20;;;;;;;2.93;1.60;;;7.50;99.90;;;;;;4949589;29;20204;-66
2021/12/09 12:39:04;;;;;;;3.60;1.90;;;7.40;99.90;;;;;;4950205;29;20188;-65
2021/12/09 12:41:30;;;;;;;2.63;1.60;;;7.40;99.90;;;;;;4952310;28;20231;-65
2021/12/09 12:44:09;;;;;;;2.73;1.60;;;7.40;99.90;;;;;;4950480;28;20307;-65
2021/12/09 12:49:24;;;;;;;2.90;1.33;;;7.50;99.90;;;;;;4950989;29;20173;-66
2021/12/09 12:52:03;;;;;;;1.63;1.27;;;7.50;99.90;;;;;;4956710;28;20296;-65
2021/12/09 12:54:56;;;;;;;3.17;2.00;;;7.50;99.90;;;;;;4949652;29;20280;-65
2021/12/09 12:57:41;;;;;;;2.93;1.70;;;7.50;99.90;;;;;;4951341;29;20208;-66
2021/12/09 13:00:13;;;;;;;2.87;1.50;;;7.50;99.90;;;;;;4964184;28;20411;-65
2021/12/09 13:05:54;;;;;;;3.63;2.07;;;7.60;99.90;;;;;;4953532;29;20262;-65
2021/12/09 13:08:52;;;;;;;1.93;1.10;;;7.50;99.90;;;;;;4955595;28;20185;-66
2021/12/09 13:11:44;;;;;;;1.73;1.37;;;7.60;99.90;;;;;;4951094;29;20199;-66
2021/12/09 13:14:19;;;;;;;2.20;1.43;;;7.60;99.90;;;;;;4963620;28;20253;-67
2021/12/09 13:17:27;;;;;;;2.20;1.60;;;7.60;99.90;;;;;;4952487;29;20194;-66
2021/12/09 13:20:06;;;;;;;2.23;1.50;;;7.60;99.90;;;;;;4945640;29;20189;-66
2021/12/09 13:22:38;;;;;;;2.30;1.60;;;7.60;99.90;;;;;;4949703;29;20208;-66
2021/12/09 13:25:33;;;;;;;1.53;1.30;;;7.60;99.90;;;;;;4946663;29;20204;-66
2021/12/09 13:39:12;;;;;;;2.20;1.20;;;7.60;99.90;;;;;;4969658;28;20188;-65
2021/12/09 13:49:47;;;;;;;3.07;1.20;;;7.60;99.90;;;;;;4952905;29;20254;-66
2021/12/09 13:55:24;;;;;;;2.20;1.20;;;7.70;99.90;;;;;;4934110;29;20239;-66
2021/12/09 13:58:05;;;;;;;2.03;1.30;;;7.70;99.90;;;;;;4945705;29;20196;-66
2021/12/09 14:00:35;;;;;;;1.80;1.20;;;7.70;99.90;;;;;;4947210;29;20214;-67
2021/12/09 14:03:09;;;;;;;2.20;1.10;;;7.70;99.90;;;;;;4940530;28;20209;-67
2021/12/09 14:05:57;;;;;;;2.20;1.33;;;7.70;99.90;;;;;;4944551;29;20176;-65